Time;durP1;ratioP1;P1;durP2;ratioP2;P2;SDS_P1;SDS_P2;PMS_P1;PMS_P2;Temp;Humidity;BMP_temperature;BMP_pressure;BME280_temperature;BME280_humidity;BME280_pressure;Samples;Min_cycle;Max_cycle;Signal;HPM_P1;HPM_P2
2024/02/14 00:01:48;;;;;;;7.05;2.13;;;7.30;99.90;;;;;;5015848;28;20030;-61
2024/02/14 00:04:14;;;;;;;5.50;2.30;;;7.30;99.90;;;;;;5018950;28;20563;-60
2024/02/14 00:06:40;;;;;;;3.85;1.65;;;7.40;99.90;;;;;;5017754;28;20052;-61
2024/02/14 00:09:06;;;;;;;4.97;1.73;;;7.40;99.90;;;;;;5020513;28;20675;-61
2024/02/14 00:11:32;;;;;;;5.65;1.77;;;7.50;99.90;;;;;;5018315;28;20045;-61
2024/02/14 00:13:59;;;;;;;4.00;1.73;;;7.50;99.90;;;;;;5017348;28;20037;-60
2024/02/14 00:16:25;;;;;;;3.60;1.52;;;7.50;99.90;;;;;;5016627;28;20450;-61
2024/02/14 00:18:51;;;;;;;4.18;1.80;;;7.50;99.90;;;;;;5017664;28;20038;-61
2024/02/14 00:21:16;;;;;;;4.13;1.30;;;7.50;99.90;;;;;;5017172;28;20055;-61
2024/02/14 00:23:43;;;;;;;4.78;2.92;;;7.50;99.90;;;;;;5017246;28;20034;-61
2024/02/14 00:26:09;;;;;;;5.53;1.92;;;7.60;99.90;;;;;;5016584;28;20025;-60
2024/02/14 00:28:34;;;;;;;5.35;1.60;;;7.60;99.90;;;;;;5016629;28;20029;-61
2024/02/14 00:31:00;;;;;;;4.40;1.45;;;7.60;99.90;;;;;;5016861;28;20408;-60
2024/02/14 00:33:25;;;;;;;8.05;1.38;;;7.60;99.90;;;;;;5017919;28;20053;-60
2024/02/14 00:35:51;;;;;;;3.60;1.55;;;7.60;99.90;;;;;;5013906;28;20044;-61
2024/02/14 00:38:17;;;;;;;3.10;1.40;;;7.70;99.90;;;;;;5015957;28;20030;-60
2024/02/14 00:40:43;;;;;;;2.58;1.13;;;7.70;99.90;;;;;;4995832;28;20104;-60
2024/02/14 00:43:08;;;;;;;5.63;1.42;;;7.70;99.90;;;;;;5017143;28;20120;-61
2024/02/14 00:45:35;;;;;;;3.85;1.30;;;7.70;99.90;;;;;;5019252;28;20037;-61
2024/02/14 00:48:03;;;;;;;3.00;1.45;;;7.70;99.90;;;;;;5017103;28;20022;-61
2024/02/14 00:50:29;;;;;;;3.38;1.30;;;7.70;99.90;;;;;;5017492;28;20048;-61
2024/02/14 00:52:54;;;;;;;5.07;1.15;;;7.80;99.90;;;;;;5017071;28;20037;-61
2024/02/14 00:55:20;;;;;;;2.47;1.00;;;7.70;99.90;;;;;;5017366;28;20069;-61
2024/02/14 00:57:45;;;;;;;2.15;1.05;;;7.70;99.90;;;;;;5018831;28;20115;-61
2024/02/14 01:00:11;;;;;;;5.10;1.45;;;7.70;99.90;;;;;;5016506;28;20041;-61
2024/02/14 01:02:37;;;;;;;4.05;1.25;;;7.70;99.90;;;;;;5017502;28;20242;-60
2024/02/14 01:05:04;;;;;;;6.55;1.23;;;7.70;99.90;;;;;;5016363;28;20034;-60
2024/02/14 01:07:29;;;;;;;3.65;0.95;;;7.70;99.90;;;;;;5015602;28;20034;-60
2024/02/14 01:09:55;;;;;;;2.05;1.10;;;7.70;99.90;;;;;;5010086;28;20049;-61
2024/02/14 01:12:21;;;;;;;3.42;1.15;;;7.70;99.90;;;;;;5015552;28;20028;-61
2024/02/14 01:14:46;;;;;;;3.72;1.42;;;7.70;99.90;;;;;;5016265;28;20037;-61
2024/02/14 01:17:12;;;;;;;3.40;1.30;;;7.60;99.90;;;;;;5015934;28;20510;-61
2024/02/14 01:19:37;;;;;;;3.15;1.77;;;7.60;99.90;;;;;;5016815;28;20385;-61
2024/02/14 01:22:03;;;;;;;14.32;1.35;;;7.60;99.90;;;;;;5019062;28;20026;-60
2024/02/14 01:24:30;;;;;;;2.33;1.15;;;7.60;99.90;;;;;;5034391;23;20216;-63
2024/02/14 01:26:55;;;;;;;1.65;0.88;;;7.60;99.90;;;;;;5001286;28;20030;-63
2024/02/14 01:29:23;;;;;;;6.65;1.15;;;7.50;99.90;;;;;;4996204;28;20639;-63
2024/02/14 01:31:50;;;;;;;2.90;0.90;;;7.50;99.90;;;;;;4995738;28;20034;-63
2024/02/14 01:34:15;;;;;;;4.80;2.20;;;7.50;99.90;;;;;;4995912;28;20065;-63
2024/02/14 01:36:41;;;;;;;1.75;0.82;;;7.50;99.90;;;;;;4994920;28;20459;-63
2024/02/14 01:39:10;;;;;;;3.10;0.90;;;7.50;99.90;;;;;;4992910;28;20400;-63
2024/02/14 01:41:37;;;;;;;2.83;0.98;;;7.50;99.90;;;;;;4960505;28;20397;-63
2024/02/14 01:44:03;;;;;;;2.13;0.70;;;7.60;99.90;;;;;;4996539;28;20559;-63
2024/02/14 01:46:29;;;;;;;2.58;0.63;;;7.50;99.90;;;;;;4991416;28;20034;-63
2024/02/14 01:48:55;;;;;;;2.38;0.73;;;7.50;99.90;;;;;;4990847;28;20038;-63
2024/02/14 01:51:26;;;;;;;7.30;1.65;;;7.60;99.90;;;;;;4990887;28;20042;-63
2024/02/14 01:53:53;;;;;;;2.72;0.77;;;7.60;99.90;;;;;;4987172;28;20045;-63
2024/02/14 01:56:19;;;;;;;3.10;0.90;;;7.60;99.90;;;;;;4984717;28;20424;-63
2024/02/14 01:58:45;;;;;;;1.73;0.70;;;7.60;99.90;;;;;;4991569;28;20023;-63
2024/02/14 02:01:11;;;;;;;3.45;0.73;;;7.60;99.90;;;;;;4990018;28;20038;-63
2024/02/14 02:03:37;;;;;;;1.38;0.77;;;7.70;99.90;;;;;;4994679;28;20030;-63
2024/02/14 02:06:05;;;;;;;4.53;0.80;;;7.70;99.90;;;;;;4990604;28;20507;-63
2024/02/14 02:08:32;;;;;;;0.63;0.52;;;7.70;99.90;;;;;;4992641;28;20065;-63
2024/02/14 02:10:58;;;;;;;3.13;0.95;;;7.70;99.90;;;;;;4991121;28;20137;-60
2024/02/14 02:13:25;;;;;;;3.80;0.77;;;7.70;99.90;;;;;;4990708;28;20408;-60
2024/02/14 02:15:53;;;;;;;3.55;0.68;;;7.70;99.90;;;;;;4987999;28;20594;-61
2024/02/14 02:18:19;;;;;;;5.65;0.73;;;7.80;99.90;;;;;;4985633;28;20031;-60
2024/02/14 02:20:45;;;;;;;1.17;0.65;;;7.80;99.90;;;;;;4984851;28;20022;-60
2024/02/14 02:23:16;;;;;;;2.70;0.70;;;7.80;99.90;;;;;;4984502;28;20046;-61
2024/02/14 02:25:42;;;;;;;2.55;0.50;;;7.80;99.90;;;;;;4986585;28;20053;-60
2024/02/14 02:28:08;;;;;;;1.45;0.50;;;7.80;99.90;;;;;;4985547;28;20500;-60
2024/02/14 02:30:35;;;;;;;4.20;0.68;;;7.80;99.90;;;;;;4984202;28;20038;-61
2024/02/14 02:33:02;;;;;;;4.53;1.23;;;7.80;99.90;;;;;;4987873;28;20038;-62
2024/02/14 02:35:28;;;;;;;3.22;0.80;;;7.80;99.90;;;;;;4984663;28;20030;-63
2024/02/14 02:37:54;;;;;;;2.42;0.63;;;7.80;99.90;;;;;;4983918;28;20496;-61
2024/02/14 02:40:21;;;;;;;1.90;0.90;;;7.90;99.90;;;;;;4963404;28;20403;-60
2024/02/14 02:42:47;;;;;;;2.55;0.47;;;7.90;99.90;;;;;;4977813;28;20463;-61
2024/02/14 02:45:13;;;;;;;4.15;0.80;;;7.90;99.90;;;;;;4991138;28;20064;-61
2024/02/14 02:47:39;;;;;;;3.05;0.60;;;7.90;99.90;;;;;;4994845;28;20025;-60
2024/02/14 02:50:05;;;;;;;1.33;1.00;;;7.90;99.90;;;;;;4990850;28;20037;-60
2024/02/14 02:52:31;;;;;;;2.30;0.82;;;7.90;99.90;;;;;;4993493;28;20038;-61
2024/02/14 02:54:57;;;;;;;1.13;0.45;;;7.90;99.90;;;;;;4992214;28;20049;-62
2024/02/14 02:57:23;;;;;;;1.58;0.60;;;7.90;99.90;;;;;;4992227;28;20078;-62
2024/02/14 02:59:48;;;;;;;2.60;0.50;;;8.00;99.90;;;;;;4992311;28;20496;-61
2024/02/14 03:02:16;;;;;;;3.60;0.60;;;8.00;99.90;;;;;;4995250;28;20031;-63
2024/02/14 03:04:41;;;;;;;1.58;1.00;;;8.00;99.90;;;;;;4990388;28;20026;-61
2024/02/14 03:07:08;;;;;;;0.80;0.60;;;8.00;99.90;;;;;;4995101;28;20509;-61
2024/02/14 03:09:37;;;;;;;1.08;0.45;;;8.00;99.90;;;;;;4994615;28;20030;-60
2024/02/14 03:12:03;;;;;;;5.13;0.88;;;8.00;99.90;;;;;;4990736;28;20026;-62
2024/02/14 03:14:32;;;;;;;1.80;0.70;;;8.00;99.90;;;;;;4989894;28;20030;-60
2024/02/14 03:17:02;;;;;;;1.15;0.80;;;8.00;99.90;;;;;;4994660;28;20065;-62
2024/02/14 03:19:29;;;;;;;3.60;0.85;;;8.00;99.90;;;;;;4988619;28;20446;-61
2024/02/14 03:21:55;;;;;;;3.65;0.77;;;8.00;99.90;;;;;;4998028;28;21008;-61
2024/02/14 03:24:21;;;;;;;3.20;0.73;;;8.00;99.90;;;;;;4996478;28;20033;-62
2024/02/14 03:26:47;;;;;;;3.45;0.77;;;8.00;99.90;;;;;;4994314;28;20040;-61
2024/02/14 03:29:13;;;;;;;2.13;0.80;;;8.00;99.90;;;;;;4995941;28;20035;-61
2024/02/14 03:31:39;;;;;;;2.05;0.80;;;8.00;99.90;;;;;;4993870;28;20035;-62
2024/02/14 03:34:05;;;;;;;1.20;0.63;;;8.00;99.90;;;;;;4995697;28;20080;-62
2024/02/14 03:36:32;;;;;;;1.67;0.75;;;8.10;99.90;;;;;;4996912;28;20484;-63
2024/02/14 03:38:58;;;;;;;2.10;0.80;;;8.00;99.90;;;;;;4997532;28;20088;-61
2024/02/14 03:41:24;;;;;;;1.30;0.73;;;8.00;99.90;;;;;;4971860;28;20141;-61
2024/02/14 03:43:50;;;;;;;3.85;0.80;;;8.10;99.90;;;;;;4998668;28;20101;-61
2024/02/14 03:46:16;;;;;;;1.48;0.50;;;8.00;99.90;;;;;;4993878;28;20022;-61
2024/02/14 03:48:47;;;;;;;2.90;0.80;;;8.00;99.90;;;;;;4996634;28;20053;-62
2024/02/14 03:51:13;;;;;;;0.73;0.60;;;8.00;99.90;;;;;;4995629;28;20026;-61
2024/02/14 03:53:39;;;;;;;1.33;0.75;;;8.00;99.90;;;;;;4998902;28;20030;-62
2024/02/14 03:56:07;;;;;;;2.55;1.45;;;8.10;99.90;;;;;;4991604;28;20057;-61
2024/02/14 03:58:37;;;;;;;1.35;0.80;;;8.10;99.90;;;;;;4995701;28;20046;-61
2024/02/14 04:01:06;;;;;;;3.47;0.70;;;8.10;99.90;;;;;;4993676;28;20018;-60
2024/02/14 04:03:31;;;;;;;0.95;0.50;;;8.10;99.90;;;;;;4998053;28;20038;-62
2024/02/14 04:05:57;;;;;;;4.90;0.70;;;8.10;99.90;;;;;;4990669;28;20025;-61
2024/02/14 04:08:23;;;;;;;1.63;0.63;;;8.10;99.90;;;;;;4989321;28;20882;-62
2024/02/14 04:10:54;;;;;;;5.57;1.15;;;8.00;99.90;;;;;;4994418;28;20022;-61
2024/02/14 04:13:20;;;;;;;3.38;0.73;;;8.10;99.90;;;;;;4996900;28;20072;-61
2024/02/14 04:15:46;;;;;;;1.67;0.50;;;8.10;99.90;;;;;;4990490;28;20117;-61
2024/02/14 04:18:12;;;;;;;5.55;0.88;;;8.10;99.90;;;;;;4995818;28;20622;-62
2024/02/14 04:20:38;;;;;;;1.33;0.63;;;8.10;99.90;;;;;;4996818;28;20065;-62
2024/02/14 04:23:06;;;;;;;2.05;0.50;;;8.00;99.90;;;;;;4988836;28;20120;-67
2024/02/14 04:25:32;;;;;;;2.17;0.60;;;8.00;99.90;;;;;;4991764;28;20395;-61
2024/02/14 04:27:59;;;;;;;3.28;0.80;;;8.00;99.90;;;;;;4998219;28;20033;-62
2024/02/14 04:30:25;;;;;;;1.10;0.40;;;8.00;99.90;;;;;;4996431;28;20026;-61
2024/02/14 04:32:51;;;;;;;1.30;0.85;;;8.00;99.90;;;;;;4996229;28;20049;-61
2024/02/14 04:35:19;;;;;;;2.42;0.82;;;8.10;99.90;;;;;;4990296;28;20117;-62
2024/02/14 04:37:46;;;;;;;1.70;0.70;;;8.10;99.90;;;;;;4995828;28;20040;-62
2024/02/14 04:40:12;;;;;;;1.00;0.60;;;8.10;99.90;;;;;;4994272;28;20026;-62
2024/02/14 04:42:38;;;;;;;1.50;0.55;;;8.10;99.90;;;;;;4974970;28;20050;-61
2024/02/14 04:45:04;;;;;;;4.93;0.73;;;8.10;99.90;;;;;;4993700;28;20670;-61
2024/02/14 04:47:29;;;;;;;1.27;0.50;;;8.10;99.90;;;;;;4993398;28;20213;-61
2024/02/14 04:49:55;;;;;;;1.13;0.47;;;8.10;99.90;;;;;;4994334;28;20061;-60
2024/02/14 04:52:21;;;;;;;1.35;0.50;;;8.10;99.90;;;;;;4992669;28;20045;-62
2024/02/14 04:54:47;;;;;;;0.98;0.40;;;8.20;99.90;;;;;;4995192;28;20034;-61
2024/02/14 04:57:12;;;;;;;0.68;0.50;;;8.10;99.90;;;;;;4991612;28;20034;-62
2024/02/14 04:59:38;;;;;;;0.82;0.50;;;8.20;99.90;;;;;;4994445;28;20049;-60
2024/02/14 05:02:04;;;;;;;0.82;0.43;;;8.20;99.90;;;;;;4992426;28;20029;-61
2024/02/14 05:04:29;;;;;;;4.63;1.20;;;8.20;99.90;;;;;;4995811;28;20026;-61
2024/02/14 05:06:55;;;;;;;3.72;0.75;;;8.20;99.90;;;;;;4994260;28;20618;-60
2024/02/14 05:09:21;;;;;;;0.77;0.50;;;8.20;99.90;;;;;;4991539;28;20042;-61
2024/02/14 05:11:46;;;;;;;3.58;0.75;;;8.20;99.90;;;;;;4986976;28;20061;-61
2024/02/14 05:14:12;;;;;;;0.52;0.40;;;8.20;99.90;;;;;;4989644;28;20031;-61
2024/02/14 05:16:37;;;;;;;1.25;0.60;;;8.20;99.90;;;;;;4990654;28;20073;-61
2024/02/14 05:19:03;;;;;;;1.23;0.68;;;8.20;99.90;;;;;;4990792;28;20350;-61
2024/02/14 05:21:29;;;;;;;1.88;0.75;;;8.30;99.90;;;;;;4995673;28;20425;-62
2024/02/14 05:23:55;;;;;;;2.40;0.90;;;8.30;99.90;;;;;;4983682;28;20022;-62
2024/02/14 05:26:21;;;;;;;1.10;0.52;;;8.30;99.90;;;;;;4990823;28;20121;-62
2024/02/14 05:28:46;;;;;;;0.85;0.60;;;8.30;99.90;;;;;;4992590;28;20516;-62
2024/02/14 05:31:12;;;;;;;1.75;0.68;;;8.30;99.90;;;;;;4994338;28;20042;-62
2024/02/14 05:33:37;;;;;;;2.10;0.70;;;8.30;99.90;;;;;;4992241;28;20467;-60
2024/02/14 05:36:03;;;;;;;2.78;0.70;;;8.30;99.90;;;;;;4993131;28;20091;-62
2024/02/14 05:38:29;;;;;;;1.33;0.70;;;8.30;99.90;;;;;;4996205;28;20029;-62
2024/02/14 05:40:55;;;;;;;2.05;0.50;;;8.30;99.90;;;;;;4972211;28;20152;-62
2024/02/14 05:43:22;;;;;;;3.55;1.02;;;8.40;99.90;;;;;;4992747;28;20122;-62
2024/02/14 05:45:47;;;;;;;2.40;0.50;;;8.30;99.90;;;;;;4994214;28;20037;-62
2024/02/14 05:48:14;;;;;;;1.13;0.75;;;8.40;99.90;;;;;;4993185;28;20040;-62
2024/02/14 05:50:40;;;;;;;1.88;0.52;;;8.40;99.90;;;;;;4992604;28;20030;-61
2024/02/14 05:53:05;;;;;;;0.90;0.43;;;8.40;99.90;;;;;;4993605;28;20952;-62
2024/02/14 05:55:32;;;;;;;1.45;0.65;;;8.40;99.90;;;;;;5007445;28;20039;-62
2024/02/14 05:57:59;;;;;;;0.82;0.60;;;8.40;99.90;;;;;;4992069;28;20023;-62
2024/02/14 06:00:25;;;;;;;1.40;0.82;;;8.40;99.90;;;;;;4990833;28;20057;-61
2024/02/14 06:02:51;;;;;;;1.90;0.75;;;8.40;99.90;;;;;;4996991;28;20046;-61
2024/02/14 06:05:17;;;;;;;1.60;1.02;;;8.40;99.90;;;;;;4996683;28;20073;-62
2024/02/14 06:07:44;;;;;;;1.05;0.85;;;8.40;99.90;;;;;;4993892;28;20081;-62
2024/02/14 06:10:10;;;;;;;2.95;0.70;;;8.40;99.90;;;;;;4989809;28;20041;-62
2024/02/14 06:12:36;;;;;;;2.38;0.77;;;8.40;99.90;;;;;;4994413;28;20076;-62
2024/02/14 06:15:02;;;;;;;2.53;0.82;;;8.40;99.90;;;;;;4994122;28;20030;-62
2024/02/14 06:17:27;;;;;;;1.60;0.80;;;8.40;99.90;;;;;;4992322;28;20038;-62
2024/02/14 06:19:54;;;;;;;1.63;0.73;;;8.30;99.90;;;;;;4989298;28;20479;-62
2024/02/14 06:22:20;;;;;;;2.45;0.70;;;8.40;99.90;;;;;;4991931;28;20108;-61
2024/02/14 06:24:48;;;;;;;2.58;1.30;;;8.30;99.90;;;;;;4991900;28;20034;-62
2024/02/14 06:27:14;;;;;;;1.27;0.88;;;8.20;99.90;;;;;;4984881;28;20176;-61
2024/02/14 06:29:42;;;;;;;2.28;0.90;;;8.20;99.90;;;;;;4991327;28;20018;-62
2024/02/14 06:32:08;;;;;;;1.70;1.10;;;8.20;99.90;;;;;;4992499;28;20045;-62
2024/02/14 06:34:33;;;;;;;5.10;0.80;;;8.10;99.90;;;;;;4991977;28;20038;-62
2024/02/14 06:36:59;;;;;;;1.83;1.02;;;8.10;99.90;;;;;;4996454;28;20089;-61
2024/02/14 06:39:24;;;;;;;2.30;1.35;;;8.10;99.90;;;;;;4993443;28;20381;-62
2024/02/14 06:41:50;;;;;;;3.85;1.95;;;8.10;99.90;;;;;;4975059;28;20070;-61
2024/02/14 06:44:16;;;;;;;6.97;0.90;;;8.00;99.90;;;;;;4992538;28;20037;-62
2024/02/14 06:46:42;;;;;;;2.95;1.13;;;8.10;99.90;;;;;;4992660;28;20022;-62
2024/02/14 06:49:08;;;;;;;1.20;0.80;;;8.00;99.90;;;;;;4989570;28;20121;-62
2024/02/14 06:51:34;;;;;;;2.10;1.08;;;8.00;99.90;;;;;;4990812;28;20104;-62
2024/02/14 06:54:00;;;;;;;1.38;0.90;;;8.00;99.90;;;;;;4993295;28;20076;-62
2024/02/14 06:56:25;;;;;;;1.98;0.95;;;8.10;99.90;;;;;;4989919;28;20214;-61
2024/02/14 06:58:53;;;;;;;1.70;0.93;;;8.10;99.90;;;;;;4991933;28;20039;-62
2024/02/14 07:01:22;;;;;;;3.67;1.10;;;8.00;99.90;;;;;;4987815;28;20381;-62
2024/02/14 07:03:48;;;;;;;2.05;1.10;;;8.00;99.90;;;;;;4993296;28;20118;-61
2024/02/14 07:06:14;;;;;;;3.47;1.10;;;8.10;99.90;;;;;;4995246;28;20034;-62
2024/02/14 07:08:43;;;;;;;2.03;0.80;;;8.10;99.90;;;;;;4994562;28;20022;-62
2024/02/14 07:11:08;;;;;;;2.72;1.05;;;8.10;99.90;;;;;;4990349;28;20037;-62
2024/02/14 07:13:34;;;;;;;2.13;0.80;;;8.10;99.90;;;;;;4994124;28;21336;-62
2024/02/14 07:16:00;;;;;;;3.83;1.02;;;8.20;99.90;;;;;;4978889;28;20022;-62
2024/02/14 07:18:26;;;;;;;6.38;1.15;;;8.20;99.90;;;;;;4980767;28;20113;-63
2024/02/14 07:20:51;;;;;;;6.03;1.00;;;8.20;99.90;;;;;;4990827;28;20041;-63
2024/02/14 07:23:18;;;;;;;1.42;0.73;;;8.20;99.90;;;;;;4992719;28;20440;-63
2024/02/14 07:25:44;;;;;;;0.65;0.47;;;8.30;99.90;;;;;;4990992;28;20030;-60
2024/02/14 07:28:10;;;;;;;1.73;0.80;;;8.30;99.90;;;;;;4995657;28;20502;-61
2024/02/14 07:30:36;;;;;;;1.38;0.73;;;8.30;99.90;;;;;;4992952;28;20499;-60
2024/02/14 07:33:01;;;;;;;3.63;1.48;;;8.40;99.90;;;;;;4991469;28;20035;-60
2024/02/14 07:35:27;;;;;;;1.67;0.70;;;8.40;99.90;;;;;;4996038;28;20030;-62
2024/02/14 07:37:53;;;;;;;1.40;0.70;;;8.50;99.90;;;;;;4994162;28;20066;-62
2024/02/14 07:40:18;;;;;;;2.72;0.60;;;8.50;99.90;;;;;;4996646;28;20464;-62
2024/02/14 07:42:44;;;;;;;4.53;0.82;;;8.60;99.90;;;;;;4974926;28;20499;-62
2024/02/14 07:45:10;;;;;;;3.78;0.80;;;8.70;99.90;;;;;;4996292;28;20053;-62
2024/02/14 07:47:35;;;;;;;2.05;0.80;;;8.60;99.90;;;;;;4996586;28;20034;-61
2024/02/14 07:50:02;;;;;;;1.15;0.70;;;8.70;99.90;;;;;;4996629;28;20416;-62
2024/02/14 07:52:28;;;;;;;1.33;0.68;;;8.70;99.90;;;;;;4992878;28;20030;-62
2024/02/14 07:54:54;;;;;;;0.60;0.50;;;8.70;99.90;;;;;;4997017;28;20041;-62
2024/02/14 07:57:22;;;;;;;3.17;0.93;;;8.70;99.90;;;;;;4992095;28;20034;-62
2024/02/14 07:59:48;;;;;;;1.33;0.60;;;8.80;99.90;;;;;;4995054;28;20033;-62
2024/02/14 08:02:14;;;;;;;0.80;0.50;;;8.80;99.90;;;;;;4997360;28;20613;-62
2024/02/14 08:04:39;;;;;;;1.70;1.02;;;8.80;99.90;;;;;;4995627;28;20464;-62
2024/02/14 08:07:05;;;;;;;1.55;0.93;;;8.80;99.90;;;;;;4998243;28;20038;-62
2024/02/14 08:09:31;;;;;;;2.00;0.90;;;8.80;99.90;;;;;;4994287;28;20117;-62
2024/02/14 08:11:56;;;;;;;3.08;0.70;;;8.80;99.90;;;;;;4995003;28;20088;-62
2024/02/14 08:14:22;;;;;;;3.17;0.93;;;8.80;99.90;;;;;;4997927;28;20037;-62
2024/02/14 08:16:48;;;;;;;3.88;0.70;;;8.90;99.90;;;;;;4993779;28;20034;-62
2024/02/14 08:19:14;;;;;;;0.82;0.45;;;8.90;99.90;;;;;;4992539;28;20030;-62
2024/02/14 08:21:40;;;;;;;1.50;0.68;;;8.90;99.90;;;;;;4995193;28;20025;-62
2024/02/14 08:24:06;;;;;;;1.85;0.55;;;8.90;99.90;;;;;;4993594;28;20411;-62
2024/02/14 08:26:31;;;;;;;3.05;0.52;;;8.90;99.90;;;;;;4993470;28;20030;-62
2024/02/14 08:28:58;;;;;;;1.40;0.88;;;8.90;99.90;;;;;;4993653;28;20452;-62
2024/02/14 08:31:24;;;;;;;3.40;0.85;;;9.00;99.90;;;;;;4994749;28;20038;-62
2024/02/14 08:33:49;;;;;;;2.83;1.15;;;9.00;99.90;;;;;;4993837;28;20042;-62
2024/02/14 08:36:16;;;;;;;1.75;0.90;;;9.00;99.90;;;;;;4993123;28;20092;-64
2024/02/14 08:38:42;;;;;;;1.88;1.02;;;9.00;99.90;;;;;;4989454;28;20035;-62
2024/02/14 08:41:08;;;;;;;1.10;0.73;;;9.00;99.90;;;;;;4992302;28;20057;-62
2024/02/14 08:43:33;;;;;;;2.13;0.60;;;9.10;99.90;;;;;;4974984;28;20505;-61
2024/02/14 08:45:59;;;;;;;0.80;0.63;;;9.20;99.90;;;;;;4994524;28;20026;-62
2024/02/14 08:48:27;;;;;;;0.80;0.40;;;9.30;99.90;;;;;;4997537;28;20039;-62
2024/02/14 08:50:52;;;;;;;1.27;0.68;;;9.40;99.90;;;;;;4992627;28;20026;-62
2024/02/14 08:53:18;;;;;;;1.20;0.80;;;9.50;99.90;;;;;;5000436;28;20038;-62
2024/02/14 08:55:44;;;;;;;2.08;0.60;;;9.60;99.90;;;;;;4990814;28;20041;-62
2024/02/14 08:58:09;;;;;;;1.33;0.50;;;9.70;99.90;;;;;;4992154;28;20491;-62
2024/02/14 09:00:36;;;;;;;3.30;1.00;;;9.80;99.90;;;;;;4993121;28;20034;-62
2024/02/14 09:03:03;;;;;;;1.17;0.45;;;9.80;99.90;;;;;;4994397;28;20444;-62
2024/02/14 09:05:29;;;;;;;4.20;0.60;;;9.90;99.90;;;;;;4995312;28;20034;-62
2024/02/14 09:07:55;;;;;;;4.25;2.08;;;9.90;99.90;;;;;;4995002;28;20031;-62
2024/02/14 09:10:21;;;;;;;4.13;1.70;;;10.00;99.90;;;;;;4994740;28;21861;-63
2024/02/14 09:12:47;;;;;;;2.30;0.80;;;10.10;99.90;;;;;;4996212;28;20075;-62
2024/02/14 09:15:13;;;;;;;2.70;1.10;;;10.10;99.90;;;;;;4993167;28;20124;-62
2024/02/14 09:17:40;;;;;;;2.45;0.90;;;10.30;99.90;;;;;;4985791;28;20642;-62
2024/02/14 09:20:09;;;;;;;4.70;1.75;;;10.40;99.90;;;;;;4996118;28;20046;-62
2024/02/14 09:22:35;;;;;;;2.10;1.10;;;10.60;99.90;;;;;;4996278;28;20081;-62
2024/02/14 09:25:04;;;;;;;6.45;2.90;;;10.60;99.90;;;;;;4993948;28;20503;-63
2024/02/14 09:27:30;;;;;;;5.47;2.80;;;10.70;99.90;;;;;;4993536;28;20108;-63
2024/02/14 09:29:56;;;;;;;8.38;3.38;;;10.70;99.90;;;;;;4995001;28;20412;-62
2024/02/14 09:32:21;;;;;;;33.88;14.73;;;10.80;99.90;;;;;;4991548;28;20034;-63
2024/02/14 09:34:47;;;;;;;13.93;6.13;;;10.90;99.90;;;;;;4992616;28;20034;-62
2024/02/14 09:37:13;;;;;;;3.67;1.85;;;11.00;99.90;;;;;;4990888;28;20037;-62
2024/02/14 09:39:39;;;;;;;6.90;3.45;;;11.20;99.90;;;;;;4994385;28;20042;-62
2024/02/14 09:42:09;;;;;;;10.70;3.67;;;11.30;99.90;;;;;;4982053;28;20054;-63
2024/02/14 09:44:36;;;;;;;8.02;3.67;;;11.50;99.90;;;;;;4991678;28;20034;-63
2024/02/14 09:47:04;;;;;;;27.05;10.65;;;11.80;99.90;;;;;;4992805;28;20478;-63
2024/02/14 09:49:31;;;;;;;19.50;6.53;;;11.90;99.90;;;;;;4992990;28;20026;-63
2024/02/14 09:51:57;;;;;;;58.92;20.50;;;12.00;99.90;;;;;;4994412;28;20064;-63
2024/02/14 09:54:23;;;;;;;70.38;29.35;;;12.00;99.90;;;;;;4993335;28;20030;-63
2024/02/14 09:56:53;;;;;;;11.43;5.60;;;12.00;99.90;;;;;;4992282;28;20034;-63
2024/02/14 09:59:20;;;;;;;17.90;6.35;;;12.30;99.90;;;;;;4989590;28;20029;-63
2024/02/14 10:01:49;;;;;;;7.82;3.42;;;12.40;99.90;;;;;;4994243;28;20022;-63
2024/02/14 10:10:59;;;;;;;21.48;7.28;;;12.70;99.90;;;;;;4993447;28;20165;-62
2024/02/14 10:13:28;;;;;;;45.95;15.43;;;12.80;99.90;;;;;;4993330;28;20112;-63
2024/02/14 10:15:55;;;;;;;22.63;9.00;;;12.90;99.90;;;;;;4985242;28;20117;-62
2024/02/14 10:18:22;;;;;;;12.93;3.80;;;12.90;99.90;;;;;;4991382;28;20041;-62
2024/02/14 10:20:58;;;;;;;26.02;10.07;;;12.80;99.90;;;;;;4997070;28;20036;-62
2024/02/14 10:23:23;;;;;;;17.10;5.75;;;12.70;99.90;;;;;;4991246;28;20025;-62
2024/02/14 10:25:52;;;;;;;4.88;1.38;;;12.50;99.90;;;;;;4994271;28;20038;-62
2024/02/14 10:28:19;;;;;;;2.53;1.45;;;12.40;99.90;;;;;;4993939;28;20034;-62
2024/02/14 10:30:49;;;;;;;9.75;4.10;;;12.40;99.90;;;;;;4989841;28;20076;-62
2024/02/14 10:33:15;;;;;;;12.77;3.88;;;12.30;99.90;;;;;;4990866;28;20038;-62
2024/02/14 10:35:42;;;;;;;10.77;4.78;;;12.30;99.90;;;;;;4991097;28;20864;-62
2024/02/14 10:38:09;;;;;;;30.70;11.15;;;12.20;99.90;;;;;;4988324;28;20030;-62
2024/02/14 10:40:38;;;;;;;5.65;2.50;;;12.20;99.90;;;;;;4990070;28;20164;-62
2024/02/14 10:43:09;;;;;;;17.05;5.00;;;12.20;99.90;;;;;;4980336;28;20058;-62
2024/02/14 10:45:37;;;;;;;31.17;10.18;;;12.30;99.90;;;;;;4993310;28;20438;-62
2024/02/14 10:48:06;;;;;;;5.90;2.40;;;12.30;99.90;;;;;;4988319;28;20025;-62
2024/02/14 10:50:37;;;;;;;7.82;3.92;;;12.20;99.90;;;;;;4993212;28;20054;-62
2024/02/14 10:53:07;;;;;;;11.77;5.38;;;12.10;99.90;;;;;;4991424;28;20487;-62
2024/02/14 10:55:33;;;;;;;8.30;3.92;;;12.10;99.90;;;;;;4992161;28;20400;-62
2024/02/14 10:57:59;;;;;;;5.20;2.70;;;12.10;99.90;;;;;;4989499;28;20782;-62
2024/02/14 11:00:25;;;;;;;7.93;2.40;;;12.00;99.90;;;;;;4989644;28;20041;-62
2024/02/14 11:02:51;;;;;;;6.47;3.55;;;12.00;99.90;;;;;;4993171;28;20031;-62
2024/02/14 11:05:23;;;;;;;3.53;1.75;;;12.00;99.90;;;;;;4990203;28;20038;-62
2024/02/14 11:07:52;;;;;;;8.88;3.97;;;11.90;99.90;;;;;;4991256;28;20041;-62
2024/02/14 11:10:19;;;;;;;8.00;2.83;;;11.90;99.90;;;;;;4995175;28;20117;-61
2024/02/14 11:12:47;;;;;;;9.80;4.10;;;12.00;99.90;;;;;;4990977;28;20117;-62
2024/02/14 11:15:24;;;;;;;15.07;5.82;;;12.00;99.90;;;;;;4987865;28;20049;-62
2024/02/14 11:17:51;;;;;;;34.65;12.93;;;12.00;99.90;;;;;;4976715;28;20049;-62
2024/02/14 11:20:18;;;;;;;9.23;3.13;;;12.00;99.90;;;;;;4988287;28;20819;-62
2024/02/14 11:22:57;;;;;;;18.42;4.45;;;12.10;99.90;;;;;;4993096;28;20099;-62
2024/02/14 11:25:28;;;;;;;1.92;1.13;;;12.10;99.90;;;;;;4994347;28;20080;-62
2024/02/14 11:27:53;;;;;;;2.53;1.25;;;12.30;99.90;;;;;;4993067;28;20037;-62
2024/02/14 11:30:37;;;;;;;4.55;1.75;;;12.40;99.90;;;;;;4993671;28;20045;-62
2024/02/14 11:33:12;;;;;;;1.98;1.02;;;12.50;99.90;;;;;;4993658;28;20034;-62
2024/02/14 11:35:41;;;;;;;6.88;2.35;;;12.50;99.90;;;;;;4994555;28;20492;-62
2024/02/14 11:38:07;;;;;;;19.73;7.65;;;12.50;99.90;;;;;;4996224;28;20029;-62
2024/02/14 11:40:32;;;;;;;18.38;4.45;;;12.50;99.90;;;;;;4996999;28;20030;-62
2024/02/14 11:42:58;;;;;;;30.85;11.52;;;12.50;99.90;;;;;;4976038;28;20061;-63
2024/02/14 11:45:24;;;;;;;35.90;10.55;;;12.60;99.90;;;;;;5001393;28;20465;-62
2024/02/14 11:47:50;;;;;;;15.80;5.30;;;12.70;99.90;;;;;;4997006;28;20079;-62
2024/02/14 11:50:18;;;;;;;11.25;3.38;;;12.80;99.90;;;;;;4994470;28;20481;-62
2024/02/14 11:52:44;;;;;;;31.65;7.13;;;12.80;99.90;;;;;;4988398;28;20080;-61
2024/02/14 11:55:10;;;;;;;58.15;17.08;;;12.70;99.90;;;;;;4993650;28;20125;-62
2024/02/14 11:57:36;;;;;;;22.27;6.57;;;12.60;99.90;;;;;;4994738;28;20133;-62
2024/02/14 12:00:02;;;;;;;47.45;14.57;;;12.60;99.90;;;;;;4993647;28;20477;-61
2024/02/14 12:02:28;;;;;;;53.65;17.48;;;12.60;99.90;;;;;;4993821;28;20034;-62
2024/02/14 12:04:55;;;;;;;47.33;14.13;;;12.60;99.90;;;;;;4991712;28;20432;-62
2024/02/14 12:07:22;;;;;;;55.20;13.70;;;12.70;99.90;;;;;;4991851;28;20030;-62
2024/02/14 12:09:48;;;;;;;29.02;7.50;;;12.60;99.90;;;;;;4994291;28;20022;-61
2024/02/14 12:12:15;;;;;;;20.63;6.82;;;12.70;99.90;;;;;;4992941;28;20038;-62
2024/02/14 12:14:44;;;;;;;18.17;5.40;;;12.60;99.90;;;;;;4993136;28;20378;-62
2024/02/14 12:17:10;;;;;;;55.30;20.08;;;12.70;99.90;;;;;;4991315;28;20076;-62
2024/02/14 12:19:37;;;;;;;25.90;9.23;;;12.60;99.90;;;;;;4992803;28;20049;-62
2024/02/14 12:22:17;;;;;;;17.20;5.97;;;12.60;99.90;;;;;;4996139;28;20018;-62
2024/02/14 12:24:44;;;;;;;5.03;2.50;;;12.60;99.90;;;;;;4990340;28;20083;-62
2024/02/14 12:27:09;;;;;;;16.17;7.38;;;12.50;99.90;;;;;;4989897;28;20088;-62
2024/02/14 12:29:35;;;;;;;4.65;1.77;;;12.50;99.90;;;;;;4991956;28;20034;-62
2024/02/14 12:32:07;;;;;;;3.53;2.20;;;12.50;99.90;;;;;;4992578;28;20907;-62
2024/02/14 12:34:33;;;;;;;5.07;2.65;;;12.50;99.90;;;;;;4995835;28;20046;-62
2024/02/14 12:36:59;;;;;;;1.05;0.70;;;12.50;99.90;;;;;;4993933;28;20077;-62
2024/02/14 12:39:29;;;;;;;3.72;1.27;;;12.40;99.90;;;;;;4998069;28;20277;-62
2024/02/14 12:41:55;;;;;;;2.75;1.55;;;12.50;99.90;;;;;;4992707;28;20018;-62
2024/02/14 12:44:21;;;;;;;1.88;1.20;;;12.40;99.90;;;;;;4971268;28;20389;-62
2024/02/14 12:46:46;;;;;;;5.75;1.52;;;12.40;99.90;;;;;;4993974;28;20031;-62
2024/02/14 12:49:12;;;;;;;0.98;0.88;;;12.40;99.90;;;;;;4993921;28;20480;-62
2024/02/14 12:51:38;;;;;;;2.05;0.80;;;12.40;99.90;;;;;;4995052;28;20026;-62
2024/02/14 12:54:05;;;;;;;1.25;1.10;;;12.40;99.90;;;;;;4999863;28;20033;-62
2024/02/14 12:56:31;;;;;;;0.73;0.60;;;12.40;99.90;;;;;;4991686;28;20041;-62